Time;durP1;ratioP1;P1;durP2;ratioP2;P2;SDS_P1;SDS_P2;PMS_P1;PMS_P2;Temp;Humidity;BMP_temperature;BMP_pressure;BME280_temperature;BME280_humidity;BME280_pressure;Samples;Min_cycle;Max_cycle;Signal;HPM_P1;HPM_P2
2022/11/26 00:01:21;;;;;;;8.18;4.82;;;5.20;99.90;;;;;;4995074;28;20033;-61
2022/11/26 00:03:48;;;;;;;12.20;5.45;;;5.20;99.90;;;;;;4994907;28;20054;-61
2022/11/26 00:06:32;;;;;;;11.23;4.40;;;5.20;99.90;;;;;;4995125;28;20604;-62
2022/11/26 00:08:59;;;;;;;15.00;5.45;;;5.20;99.90;;;;;;4995302;28;20050;-63
2022/11/26 00:11:26;;;;;;;9.32;5.50;;;5.20;99.90;;;;;;4993358;28;20568;-62
2022/11/26 00:13:53;;;;;;;;;;;5.10;99.90;;;;;;4992499;28;20066;-62
2022/11/26 00:16:20;;;;;;;9.32;4.35;;;5.10;99.90;;;;;;4995176;28;19948;-62
2022/11/26 00:18:46;;;;;;;10.63;3.78;;;5.10;99.90;;;;;;4992234;28;20068;-62
2022/11/26 00:21:22;;;;;;;7.88;3.85;;;5.00;99.90;;;;;;4993300;28;20518;-63
2022/11/26 00:23:50;;;;;;;7.55;3.53;;;5.00;99.90;;;;;;4992014;28;20077;-62
2022/11/26 00:26:23;;;;;;;11.55;4.00;;;5.00;99.90;;;;;;4993831;28;20431;-63
2022/11/26 00:28:55;;;;;;;10.70;3.17;;;5.00;99.90;;;;;;4994332;28;20119;-63
2022/11/26 00:31:23;;;;;;;8.32;3.47;;;5.00;99.90;;;;;;4994737;28;20136;-63
2022/11/26 00:33:50;;;;;;;8.98;3.08;;;5.00;99.90;;;;;;4995761;28;20128;-62
2022/11/26 00:36:27;;;;;;;4.18;2.78;;;5.00;99.90;;;;;;4992107;28;20057;-61
2022/11/26 00:39:10;;;;;;;6.93;2.90;;;5.00;99.90;;;;;;4974918;28;20049;-64
2022/11/26 00:41:38;;;;;;;6.05;2.88;;;5.00;99.90;;;;;;4992885;28;20349;-64
2022/11/26 00:44:17;;;;;;;6.22;2.90;;;5.00;99.90;;;;;;4994374;28;20053;-63
2022/11/26 00:46:43;;;;;;;7.05;3.15;;;4.90;99.90;;;;;;4993398;28;20445;-64
2022/11/26 00:49:10;;;;;;;;;;;4.90;99.90;;;;;;4991736;28;20049;-62
2022/11/26 00:51:37;;;;;;;9.90;3.50;;;4.90;99.90;;;;;;4994357;28;20342;-61
2022/11/26 00:54:05;;;;;;;7.63;3.47;;;4.90;99.90;;;;;;4991657;28;20121;-66
2022/11/26 00:56:32;;;;;;;7.32;2.60;;;4.90;99.90;;;;;;4992499;28;20338;-62
2022/11/26 00:59:04;;;;;;;8.52;3.22;;;4.90;99.90;;;;;;4975707;28;20371;-64
2022/11/26 01:01:31;;;;;;;5.25;2.53;;;4.90;99.90;;;;;;4992892;28;20042;-64
2022/11/26 01:03:58;;;;;;;5.05;3.35;;;4.90;99.90;;;;;;4992568;28;20042;-64
2022/11/26 01:06:29;;;;;;;;;;;4.90;99.90;;;;;;4996029;28;20046;-62
2022/11/26 01:08:56;;;;;;;7.18;3.00;;;4.90;99.90;;;;;;4989928;28;19965;-62
2022/11/26 01:11:23;;;;;;;6.53;2.80;;;4.90;99.90;;;;;;4994134;28;20065;-64
2022/11/26 01:13:52;;;;;;;8.43;2.60;;;4.90;99.90;;;;;;4989279;28;20088;-62
2022/11/26 01:16:28;;;;;;;7.57;2.20;;;4.80;99.90;;;;;;4995511;28;20076;-62
2022/11/26 01:18:57;;;;;;;3.20;2.13;;;4.80;99.90;;;;;;4984277;28;20115;-62
2022/11/26 01:21:26;;;;;;;3.58;2.15;;;4.80;99.90;;;;;;4993843;28;20046;-64
2022/11/26 01:23:53;;;;;;;2.85;1.85;;;4.80;99.90;;;;;;4991067;28;20129;-63
2022/11/26 01:26:21;;;;;;;;;;;4.80;99.90;;;;;;4990763;28;20404;-63
2022/11/26 01:28:49;;;;;;;4.45;1.90;;;4.80;99.90;;;;;;4994381;28;20024;-63
2022/11/26 01:31:22;;;;;;;5.93;2.03;;;4.80;99.90;;;;;;4995335;28;20512;-64
2022/11/26 01:33:49;;;;;;;4.00;1.80;;;4.70;99.90;;;;;;4994352;28;20533;-64
2022/11/26 01:36:25;;;;;;;;;;;4.70;99.90;;;;;;4994768;28;20048;-64
2022/11/26 01:38:54;;;;;;;4.75;1.90;;;4.70;99.90;;;;;;4991934;28;19925;-62
2022/11/26 01:41:46;;;;;;;5.40;1.70;;;4.70;99.90;;;;;;4991331;28;20416;-63
2022/11/26 01:44:20;;;;;;;3.90;1.42;;;4.70;99.90;;;;;;4989093;28;20128;-62
2022/11/26 01:46:49;;;;;;;10.15;3.42;;;4.70;99.90;;;;;;4990045;28;20125;-62
2022/11/26 01:49:19;;;;;;;8.40;1.70;;;4.60;99.90;;;;;;4993826;28;20045;-62
2022/11/26 01:51:50;;;;;;;6.20;1.60;;;4.60;99.90;;;;;;4983509;28;20598;-62
2022/11/26 01:54:16;;;;;;;6.97;2.38;;;4.60;99.90;;;;;;4991374;28;20046;-63
2022/11/26 01:56:52;;;;;;;5.13;1.98;;;4.60;99.90;;;;;;4989981;28;20515;-62
2022/11/26 01:59:31;;;;;;;3.50;1.70;;;4.50;99.90;;;;;;4992756;28;20498;-62
2022/11/26 02:01:59;;;;;;;5.50;1.70;;;4.50;99.90;;;;;;4992058;28;20235;-64
2022/11/26 02:04:28;;;;;;;8.88;1.85;;;4.50;99.90;;;;;;4989009;28;20054;-62
2022/11/26 02:06:56;;;;;;;3.65;2.08;;;4.40;99.90;;;;;;4993411;28;20161;-65
2022/11/26 02:09:25;;;;;;;9.05;2.05;;;4.50;99.90;;;;;;4990372;28;20099;-64
2022/11/26 02:11:52;;;;;;;8.52;1.75;;;4.40;99.90;;;;;;4991822;28;20136;-63
2022/11/26 02:14:24;;;;;;;10.52;2.10;;;4.40;99.90;;;;;;4990745;28;20951;-64
2022/11/26 02:17:11;;;;;;;2.90;1.90;;;4.40;99.90;;;;;;4989909;28;20041;-64
2022/11/26 02:19:55;;;;;;;9.55;1.85;;;4.40;99.90;;;;;;4991441;28;20262;-64
2022/11/26 02:22:44;;;;;;;4.78;2.42;;;4.40;99.90;;;;;;4992492;28;20077;-65
2022/11/26 02:25:32;;;;;;;7.75;1.98;;;4.40;99.90;;;;;;4991712;28;20269;-62
2022/11/26 02:28:18;;;;;;;5.18;1.88;;;4.40;99.90;;;;;;4992795;28;20056;-61
2022/11/26 02:30:51;;;;;;;8.85;2.25;;;4.40;99.90;;;;;;4990921;28;20853;-62
2022/11/26 02:33:33;;;;;;;3.00;2.13;;;4.40;99.90;;;;;;4990634;28;20573;-63
2022/11/26 02:36:40;;;;;;;8.48;2.22;;;4.40;99.90;;;;;;4990707;28;20045;-62
2022/11/26 02:39:11;;;;;;;5.82;1.95;;;4.40;99.90;;;;;;4964846;28;20849;-62
2022/11/26 02:41:44;;;;;;;6.32;2.00;;;4.40;99.90;;;;;;4993112;28;20081;-64
2022/11/26 02:44:13;;;;;;;8.32;2.38;;;4.30;99.90;;;;;;4991676;28;20046;-64
2022/11/26 02:46:41;;;;;;;7.38;3.05;;;4.40;99.90;;;;;;4983765;28;20058;-62
2022/11/26 02:49:11;;;;;;;11.63;2.72;;;4.40;99.90;;;;;;4992102;28;20054;-63
2022/11/26 02:51:39;;;;;;;8.40;2.47;;;4.40;99.90;;;;;;4990048;28;20050;-62
2022/11/26 02:54:08;;;;;;;4.75;2.22;;;4.30;99.90;;;;;;4991209;28;20053;-62
2022/11/26 02:56:35;;;;;;;8.65;2.50;;;4.40;99.90;;;;;;4991441;28;20112;-61
2022/11/26 02:59:04;;;;;;;10.00;2.67;;;4.30;99.90;;;;;;4988806;28;20072;-63
2022/11/26 03:01:48;;;;;;;5.93;2.88;;;4.30;99.90;;;;;;4982953;28;20140;-66
2022/11/26 03:04:23;;;;;;;7.78;2.80;;;4.30;99.90;;;;;;5004904;28;20045;-64
2022/11/26 03:06:51;;;;;;;9.02;3.80;;;4.30;99.90;;;;;;4981141;28;20072;-64
2022/11/26 03:09:21;;;;;;;8.25;2.30;;;4.30;99.90;;;;;;4991859;28;20522;-65
2022/11/26 03:11:48;;;;;;;6.63;2.35;;;4.30;99.90;;;;;;4989697;28;20050;-63
2022/11/26 03:14:15;;;;;;;7.72;2.28;;;4.30;99.90;;;;;;4992772;28;20064;-63
2022/11/26 03:16:42;;;;;;;7.18;2.72;;;4.30;99.90;;;;;;4992521;28;20052;-64
2022/11/26 03:19:09;;;;;;;5.60;2.30;;;4.30;99.90;;;;;;4988910;28;20076;-63
2022/11/26 03:21:35;;;;;;;10.23;2.90;;;4.30;99.90;;;;;;4992375;28;20666;-62
2022/11/26 03:24:02;;;;;;;;;;;4.30;99.90;;;;;;4990167;28;20097;-63
2022/11/26 03:26:29;;;;;;;6.53;2.00;;;4.20;99.90;;;;;;4990609;28;20028;-62
2022/11/26 03:28:55;;;;;;;;;;;4.30;99.90;;;;;;4987072;28;20300;-65
2022/11/26 03:31:22;;;;;;;10.50;2.72;;;4.30;99.90;;;;;;4988517;28;20371;-65
2022/11/26 03:33:49;;;;;;;;;;;4.20;99.90;;;;;;4974860;28;20060;-63
2022/11/26 03:36:16;;;;;;;8.35;2.00;;;4.30;99.90;;;;;;4990719;28;19929;-64
2022/11/26 03:38:42;;;;;;;7.78;2.60;;;4.30;99.90;;;;;;4992111;28;20038;-65
2022/11/26 03:41:09;;;;;;;;;;;4.30;99.90;;;;;;4984698;28;20400;-62
2022/11/26 03:43:36;;;;;;;4.20;2.33;;;4.30;99.90;;;;;;4987990;28;20012;-63
2022/11/26 03:46:02;;;;;;;;;;;4.20;99.90;;;;;;4988548;28;20411;-62
2022/11/26 03:48:29;;;;;;;5.60;2.15;;;4.20;99.90;;;;;;4990893;28;20136;-62
2022/11/26 03:50:56;;;;;;;4.78;1.75;;;4.20;99.90;;;;;;4991243;28;20041;-63
2022/11/26 03:53:23;;;;;;;;;;;4.30;99.90;;;;;;4991465;28;20054;-63
2022/11/26 03:55:49;;;;;;;4.07;1.70;;;4.20;99.90;;;;;;4990940;28;20475;-62
2022/11/26 03:58:16;;;;;;;3.63;1.55;;;4.30;99.90;;;;;;4995425;28;20103;-62
2022/11/26 04:00:43;;;;;;;4.38;2.20;;;4.20;99.90;;;;;;4976862;28;20427;-62
2022/11/26 04:03:10;;;;;;;4.40;1.77;;;4.30;99.90;;;;;;4993659;28;20045;-65
2022/11/26 04:05:37;;;;;;;4.65;1.73;;;4.30;99.90;;;;;;4985947;28;20054;-63
2022/11/26 04:08:03;;;;;;;3.97;2.22;;;4.30;99.90;;;;;;4993305;28;20052;-64
2022/11/26 04:10:30;;;;;;;6.50;1.95;;;4.30;99.90;;;;;;4984502;28;20053;-65
2022/11/26 04:12:57;;;;;;;;;;;4.30;99.90;;;;;;4995758;28;20534;-63
2022/11/26 04:15:24;;;;;;;10.60;1.92;;;4.30;99.90;;;;;;4991308;28;20035;-63
2022/11/26 04:17:50;;;;;;;;;;;4.30;99.90;;;;;;4994632;28;20046;-62
2022/11/26 04:20:17;;;;;;;9.88;2.00;;;4.30;99.90;;;;;;4975811;28;19971;-63
2022/11/26 04:22:44;;;;;;;;;;;4.30;99.90;;;;;;4995054;28;20119;-62
2022/11/26 04:25:10;;;;;;;4.10;1.70;;;4.30;99.90;;;;;;4994725;28;20769;-61
2022/11/26 04:27:37;;;;;;;4.00;2.13;;;4.30;99.90;;;;;;4993505;28;20050;-63
2022/11/26 04:30:05;;;;;;;;;;;4.30;99.90;;;;;;4987004;28;20527;-63
2022/11/26 04:32:32;;;;;;;2.38;1.50;;;4.30;99.90;;;;;;4994179;28;19932;-63
2022/11/26 04:34:58;;;;;;;3.22;1.85;;;4.30;99.90;;;;;;4994531;28;20483;-62
2022/11/26 04:37:25;;;;;;;6.13;2.13;;;4.30;99.90;;;;;;4975196;28;20042;-63
2022/11/26 04:39:52;;;;;;;3.95;2.05;;;4.30;99.90;;;;;;4993757;28;20128;-62
2022/11/26 04:42:19;;;;;;;;;;;4.30;99.90;;;;;;4991073;28;20159;-62
2022/11/26 04:44:45;;;;;;;3.97;2.05;;;4.30;99.90;;;;;;4994584;28;20043;-64
2022/11/26 04:47:12;;;;;;;5.80;2.75;;;4.30;99.90;;;;;;4994515;28;20257;-65
2022/11/26 04:49:39;;;;;;;2.90;1.90;;;4.30;99.90;;;;;;4991481;28;20571;-62
2022/11/26 04:52:06;;;;;;;;;;;4.30;99.90;;;;;;4977532;28;20053;-62
2022/11/26 04:54:32;;;;;;;7.30;2.40;;;4.40;99.90;;;;;;4990638;28;19929;-63
2022/11/26 04:56:59;;;;;;;3.90;1.55;;;4.40;99.90;;;;;;4993617;28;20306;-62
2022/11/26 04:59:26;;;;;;;6.88;2.28;;;4.40;99.90;;;;;;4993160;28;20049;-63
2022/11/26 05:01:53;;;;;;;;;;;4.40;99.90;;;;;;4993463;28;20041;-62
2022/11/26 05:04:19;;;;;;;10.25;3.00;;;4.40;99.90;;;;;;4990060;28;20383;-62
2022/11/26 05:06:46;;;;;;;6.60;1.80;;;4.40;99.90;;;;;;4990379;28;20153;-65
2022/11/26 05:09:13;;;;;;;3.50;1.77;;;4.30;99.90;;;;;;4993340;28;20049;-61
2022/11/26 05:11:39;;;;;;;4.15;1.58;;;4.40;99.90;;;;;;4994534;28;20056;-62
2022/11/26 05:14:06;;;;;;;6.80;2.25;;;4.30;99.90;;;;;;4992580;28;20316;-62
2022/11/26 05:16:33;;;;;;;6.75;2.00;;;4.30;99.90;;;;;;4994408;28;20727;-62
2022/11/26 05:19:00;;;;;;;5.43;2.00;;;4.30;99.90;;;;;;4990161;28;20438;-62
2022/11/26 05:21:27;;;;;;;;;;;4.30;99.90;;;;;;4995643;28;20123;-62
2022/11/26 05:23:53;;;;;;;6.63;2.67;;;4.30;99.90;;;;;;4991329;28;19970;-62
2022/11/26 05:26:20;;;;;;;4.93;2.30;;;4.30;99.90;;;;;;4991705;28;20132;-62
2022/11/26 05:28:47;;;;;;;;;;;4.30;99.90;;;;;;4995112;28;20046;-62
2022/11/26 05:31:14;;;;;;;2.40;2.10;;;4.30;99.90;;;;;;4992231;28;19951;-62
2022/11/26 05:33:40;;;;;;;;;;;4.20;99.90;;;;;;4994237;28;20063;-63
2022/11/26 05:36:07;;;;;;;8.95;2.72;;;4.30;99.90;;;;;;4992972;28;19925;-62
2022/11/26 05:38:34;;;;;;;2.22;1.70;;;4.20;99.90;;;;;;4993195;28;20046;-63
2022/11/26 05:41:01;;;;;;;;;;;4.20;99.90;;;;;;4993609;28;20496;-63
2022/11/26 05:43:27;;;;;;;5.82;2.60;;;4.20;99.90;;;;;;4993662;28;19925;-62
2022/11/26 05:45:54;;;;;;;;;;;4.20;99.90;;;;;;4992530;28;20314;-62
2022/11/26 05:48:21;;;;;;;5.43;2.83;;;4.20;99.90;;;;;;4992625;28;20198;-63
2022/11/26 05:50:47;;;;;;;;;;;4.20;99.90;;;;;;4994498;28;20046;-63
2022/11/26 05:53:20;;;;;;;5.45;2.50;;;4.10;99.90;;;;;;4991808;28;20303;-67
2022/11/26 05:55:46;;;;;;;13.00;3.22;;;4.00;99.90;;;;;;4990976;28;20065;-63
2022/11/26 05:58:13;;;;;;;;;;;4.00;99.90;;;;;;4993234;28;20065;-62
2022/11/26 06:00:40;;;;;;;7.10;3.00;;;4.00;99.90;;;;;;4992231;28;19935;-63
2022/11/26 06:03:07;;;;;;;14.85;2.97;;;3.90;99.90;;;;;;4993913;28;20251;-62
2022/11/26 06:05:34;;;;;;;8.50;3.25;;;3.90;99.90;;;;;;4993287;28;20046;-62
2022/11/26 06:08:00;;;;;;;;;;;3.80;99.90;;;;;;4993580;28;20512;-62
2022/11/26 06:10:27;;;;;;;8.82;3.13;;;3.80;99.90;;;;;;4989001;28;20003;-63
2022/11/26 06:12:54;;;;;;;;;;;3.70;99.90;;;;;;4991287;28;20049;-63
2022/11/26 06:15:21;;;;;;;6.55;3.10;;;3.70;99.90;;;;;;4992593;28;19951;-63
2022/11/26 06:17:48;;;;;;;;;;;3.70;99.90;;;;;;4991679;28;20249;-62
2022/11/26 06:20:16;;;;;;;7.85;3.30;;;3.60;99.90;;;;;;4992209;28;20391;-63
2022/11/26 06:22:43;;;;;;;15.60;3.72;;;3.60;99.90;;;;;;4990348;28;20439;-62
2022/11/26 06:25:12;;;;;;;13.35;4.63;;;3.50;99.90;;;;;;4990657;28;20045;-63
2022/11/26 06:27:39;;;;;;;14.77;4.05;;;3.50;99.90;;;;;;4991844;28;20214;-62
2022/11/26 06:30:08;;;;;;;15.98;4.47;;;3.40;99.90;;;;;;4991994;28;20061;-64
2022/11/26 06:32:35;;;;;;;11.15;4.20;;;3.30;99.90;;;;;;4993427;28;20049;-64
2022/11/26 06:35:02;;;;;;;;;;;3.30;99.90;;;;;;4990333;28;20056;-63
2022/11/26 06:37:28;;;;;;;7.32;3.50;;;3.30;99.90;;;;;;4990680;28;19929;-64
2022/11/26 06:39:55;;;;;;;;;;;3.30;99.90;;;;;;4992570;28;20140;-64
2022/11/26 06:42:22;;;;;;;9.05;4.50;;;3.30;99.90;;;;;;5007628;28;20024;-51
2022/11/26 06:44:48;;;;;;;;;;;3.30;99.90;;;;;;4992421;28;20060;-53
2022/11/26 06:47:15;;;;;;;8.88;4.35;;;3.30;99.90;;;;;;4990790;28;19925;-54
2022/11/26 06:49:42;;;;;;;;;;;3.30;99.90;;;;;;4994273;28;20045;-52
2022/11/26 06:52:08;;;;;;;9.13;3.72;;;3.30;99.90;;;;;;4991399;28;19925;-53
2022/11/26 06:54:35;;;;;;;;;;;3.40;99.90;;;;;;4991735;28;20046;-54
2022/11/26 06:57:02;;;;;;;6.60;3.05;;;3.40;99.90;;;;;;5005267;28;19925;-52
2022/11/26 06:59:30;;;;;;;;;;;3.40;99.90;;;;;;4993988;28;20034;-53
2022/11/26 07:01:56;;;;;;;7.45;3.47;;;3.40;99.90;;;;;;4992080;28;20927;-52
2022/11/26 07:04:23;;;;;;;8.50;4.18;;;3.40;99.90;;;;;;4990326;28;20431;-52
2022/11/26 07:06:50;;;;;;;;;;;3.40;99.90;;;;;;4992947;28;20591;-50
2022/11/26 07:09:17;;;;;;;12.63;4.18;;;3.40;99.90;;;;;;4992346;28;19932;-54
2022/11/26 07:11:43;;;;;;;;;;;3.40;99.90;;;;;;4994173;28;20413;-51
2022/11/26 07:14:10;;;;;;;5.53;2.60;;;3.40;99.90;;;;;;4987841;28;20803;-50
2022/11/26 07:16:37;;;;;;;;;;;3.40;99.90;;;;;;4992933;28;20551;-52
2022/11/26 07:19:04;;;;;;;6.63;3.38;;;3.40;99.90;;;;;;4992076;28;19931;-51
2022/11/26 07:21:31;;;;;;;20.58;4.15;;;3.40;99.90;;;;;;4990107;28;20046;-51
2022/11/26 07:23:58;;;;;;;7.47;3.30;;;3.40;99.90;;;;;;4990983;28;20077;-52
2022/11/26 07:26:25;;;;;;;9.02;3.35;;;3.40;99.90;;;;;;4988267;28;20062;-52
2022/11/26 07:28:52;;;;;;;;;;;3.50;99.90;;;;;;4992704;28;20042;-48
2022/11/26 07:31:20;;;;;;;8.13;3.65;;;3.50;99.90;;;;;;4997059;28;20258;-54
2022/11/26 07:33:48;;;;;;;9.30;2.97;;;3.50;99.90;;;;;;4995535;28;20054;-51
2022/11/26 07:36:18;;;;;;;5.70;2.70;;;3.50;99.90;;;;;;4994688;28;20141;-53
2022/11/26 07:38:45;;;;;;;5.47;2.78;;;3.60;99.90;;;;;;4994218;28;20800;-52
2022/11/26 07:41:15;;;;;;;7.80;3.40;;;3.60;99.90;;;;;;4995467;28;20046;-47
2022/11/26 07:43:42;;;;;;;7.85;3.35;;;3.60;99.90;;;;;;4993236;28;20096;-48
2022/11/26 07:46:11;;;;;;;9.05;3.58;;;3.60;99.90;;;;;;4994842;28;20533;-49
2022/11/26 07:48:39;;;;;;;6.90;3.72;;;3.70;99.90;;;;;;4998355;28;20123;-49
2022/11/26 07:51:07;;;;;;;10.30;4.07;;;4.00;99.90;;;;;;4995818;28;20128;-50
2022/11/26 07:53:35;;;;;;;6.45;3.83;;;4.30;99.90;;;;;;4994179;28;20042;-48
2022/11/26 07:56:05;;;;;;;4.25;2.85;;;4.60;99.90;;;;;;4994528;28;20042;-49
2022/11/26 07:58:32;;;;;;;7.00;3.22;;;5.00;99.90;;;;;;4993366;28;20041;-49
2022/11/26 08:01:10;;;;;;;6.30;3.30;;;5.40;99.90;;;;;;4995191;28;20127;-50
2022/11/26 08:03:44;;;;;;;11.23;3.67;;;5.90;99.90;;;;;;4993379;28;20052;-49
2022/11/26 08:06:14;;;;;;;6.22;2.75;;;6.30;99.90;;;;;;4972365;28;20404;-48
2022/11/26 08:08:41;;;;;;;7.72;2.88;;;6.80;99.90;;;;;;4990991;28;20534;-51
2022/11/26 08:11:13;;;;;;;;;;;7.30;99.90;;;;;;4996007;28;20586;-49
2022/11/26 08:13:40;;;;;;;4.05;1.98;;;7.70;99.90;;;;;;4992488;28;20670;-49
2022/11/26 08:16:07;;;;;;;5.40;2.13;;;8.10;99.90;;;;;;4996163;28;20058;-55
2022/11/26 08:18:34;;;;;;;8.32;2.60;;;8.50;99.90;;;;;;4993805;28;20570;-52
2022/11/26 08:21:01;;;;;;;6.95;2.53;;;8.80;99.90;;;;;;4996455;28;20049;-52
2022/11/26 08:23:29;;;;;;;6.05;2.97;;;9.20;99.90;;;;;;4993911;28;20046;-52
2022/11/26 08:25:56;;;;;;;5.15;2.28;;;9.50;99.90;;;;;;4992345;28;20038;-52
2022/11/26 08:28:45;;;;;;;4.38;2.25;;;9.80;99.90;;;;;;4994674;28;20054;-53
2022/11/26 08:31:14;;;;;;;7.72;2.50;;;10.10;99.90;;;;;;4991218;28;20506;-56
2022/11/26 08:33:41;;;;;;;9.73;3.08;;;10.30;99.90;;;;;;4995020;28;20050;-54
2022/11/26 08:36:08;;;;;;;11.35;3.10;;;10.60;99.90;;;;;;4993282;28;20058;-52
2022/11/26 08:38:36;;;;;;;5.13;2.20;;;10.70;99.90;;;;;;4994139;28;20041;-52
2022/11/26 08:41:06;;;;;;;9.68;3.08;;;10.90;99.90;;;;;;4976651;28;20691;-55
2022/11/26 08:43:36;;;;;;;17.08;2.90;;;11.20;99.90;;;;;;4992105;28;20136;-49
2022/11/26 08:46:24;;;;;;;7.85;2.63;;;11.60;99.90;;;;;;4993799;28;20037;-54
2022/11/26 08:48:54;;;;;;;4.97;2.40;;;11.80;99.90;;;;;;4993059;28;20539;-53
2022/11/26 08:51:22;;;;;;;5.13;2.42;;;12.00;99.90;;;;;;4995500;28;20048;-55
2022/11/26 08:53:48;;;;;;;5.05;2.40;;;12.10;99.90;;;;;;4992885;28;20124;-53
2022/11/26 08:56:15;;;;;;;5.72;2.40;;;12.10;99.90;;;;;;4989948;28;20178;-54
2022/11/26 08:58:47;;;;;;;7.68;2.50;;;12.20;99.90;;;;;;4976453;28;20490;-53
2022/11/26 09:01:15;;;;;;;5.40;3.00;;;12.40;99.90;;;;;;4991088;28;20049;-52
2022/11/26 09:03:43;;;;;;;4.60;2.53;;;12.60;99.90;;;;;;4996109;28;20077;-53
2022/11/26 09:06:10;;;;;;;4.90;2.88;;;12.70;99.90;;;;;;4987478;28;20233;-54
2022/11/26 09:11:24;;;;;;;4.55;2.38;;;12.70;99.90;;;;;;4995284;28;20049;-55
2022/11/26 09:13:52;;;;;;;8.07;2.85;;;12.80;99.90;;;;;;4992359;28;20798;-65
2022/11/26 09:16:23;;;;;;;2.50;2.00;;;12.90;99.90;;;;;;4994782;28;20510;-55
2022/11/26 09:18:51;;;;;;;9.50;3.13;;;12.80;99.90;;;;;;4993402;28;20222;-62
2022/11/26 09:21:18;;;;;;;7.25;2.63;;;12.60;99.90;;;;;;4993690;28;20057;-50
2022/11/26 09:23:45;;;;;;;5.45;2.83;;;12.60;99.90;;;;;;4992173;28;20095;-53
2022/11/26 09:26:12;;;;;;;3.53;2.35;;;12.50;99.90;;;;;;4992220;28;20560;-53
2022/11/26 09:28:39;;;;;;;8.10;3.45;;;12.20;99.90;;;;;;4994448;28;20053;-49
2022/11/26 09:31:06;;;;;;;8.25;2.92;;;12.00;99.90;;;;;;4991376;28;20365;-52
2022/11/26 09:33:32;;;;;;;5.80;2.70;;;11.70;99.90;;;;;;4989408;28;20073;-51
2022/11/26 09:36:08;;;;;;;5.13;2.78;;;11.40;99.90;;;;;;4990003;28;20041;-51
2022/11/26 09:38:35;;;;;;;8.98;3.38;;;11.00;99.90;;;;;;4991320;28;20041;-52
2022/11/26 09:41:18;;;;;;;5.40;2.78;;;10.80;99.90;;;;;;4977497;28;20132;-49
2022/11/26 09:43:54;;;;;;;4.28;2.35;;;10.60;99.90;;;;;;4989973;28;20131;-52
2022/11/26 09:46:45;;;;;;;11.63;4.30;;;10.50;99.90;;;;;;4991541;28;20934;-51
2022/11/26 09:49:57;;;;;;;9.20;3.55;;;10.40;99.90;;;;;;4993389;28;20136;-51
2022/11/26 09:52:37;;;;;;;12.95;4.05;;;10.20;99.90;;;;;;4983592;28;20506;-53
2022/11/26 09:55:21;;;;;;;9.65;4.65;;;9.90;99.90;;;;;;4992017;28;20046;-55
2022/11/26 09:58:00;;;;;;;12.15;5.03;;;9.70;99.90;;;;;;4988855;28;20487;-54
2022/11/26 10:00:42;;;;;;;8.85;4.97;;;9.40;99.90;;;;;;4985015;28;20033;-53
2022/11/26 10:03:34;;;;;;;16.67;4.97;;;9.10;99.90;;;;;;4982507;28;20049;-54
2022/11/26 10:06:22;;;;;;;14.63;4.60;;;8.70;99.90;;;;;;4952648;28;20155;-52
2022/11/26 10:09:21;;;;;;;6.97;4.88;;;8.40;99.90;;;;;;4974854;28;20042;-52
2022/11/26 10:12:02;;;;;;;8.35;4.80;;;8.00;99.90;;;;;;4985297;28;20554;-53
2022/11/26 10:14:51;;;;;;;5.93;4.32;;;7.70;99.90;;;;;;4993450;28;20121;-53
2022/11/26 10:17:33;;;;;;;8.55;4.78;;;7.40;99.90;;;;;;4995358;28;20115;-51
2022/11/26 10:19:59;;;;;;;9.25;4.97;;;7.30;99.90;;;;;;4993606;28;20423;-52
2022/11/26 10:22:36;;;;;;;9.00;4.97;;;7.20;99.90;;;;;;4990706;28;20508;-50
2022/11/26 10:25:15;;;;;;;8.23;4.68;;;7.10;99.90;;;;;;4993479;28;20045;-50
2022/11/26 10:27:41;;;;;;;9.05;4.65;;;7.10;99.90;;;;;;4989765;28;20046;-55
2022/11/26 10:30:15;;;;;;;;;;;7.00;99.90;;;;;;4993968;28;20069;-54
2022/11/26 10:32:45;;;;;;;13.38;7.40;;;7.00;99.90;;;;;;4991401;28;19935;-54
2022/11/26 10:35:34;;;;;;;13.27;7.55;;;7.10;99.90;;;;;;4992281;28;20559;-54
2022/11/26 10:38:01;;;;;;;9.15;5.93;;;7.10;99.90;;;;;;4992320;28;20842;-51
2022/11/26 10:40:30;;;;;;;11.20;7.35;;;7.20;99.90;;;;;;4988920;28;20429;-55
2022/11/26 10:43:12;;;;;;;14.55;6.35;;;7.40;99.90;;;;;;4993652;28;20375;-52
2022/11/26 10:45:41;;;;;;;13.32;6.45;;;7.80;99.90;;;;;;4990228;28;20050;-56
2022/11/26 10:48:20;;;;;;;11.07;5.50;;;8.30;99.90;;;;;;4973123;28;20046;-54
2022/11/26 10:51:27;;;;;;;15.68;5.78;;;8.80;99.90;;;;;;4984252;28;20582;-55
2022/11/26 10:54:03;;;;;;;8.68;5.00;;;9.20;99.90;;;;;;4964755;28;20625;-51
2022/11/26 10:56:46;;;;;;;15.32;4.18;;;9.50;99.90;;;;;;4990954;28;20050;-52
2022/11/26 10:59:27;;;;;;;12.15;5.72;;;9.90;99.90;;;;;;4989138;28;20718;-53
2022/11/26 11:01:59;;;;;;;11.60;4.75;;;10.30;99.90;;;;;;4991165;28;20528;-53
2022/11/26 11:04:31;;;;;;;9.35;5.88;;;10.60;99.90;;;;;;4988947;28;20080;-52
2022/11/26 11:06:58;;;;;;;8.88;5.10;;;10.80;99.90;;;;;;4995537;28;20057;-53
2022/11/26 11:09:29;;;;;;;;;;;11.00;99.90;;;;;;4995947;28;20456;-52
2022/11/26 11:12:15;;;;;;;6.50;5.50;;;11.30;99.90;;;;;;4997820;28;20279;-52
2022/11/26 11:14:45;;;;;;;10.32;5.13;;;11.70;99.90;;;;;;4994332;28;20598;-53
2022/11/26 11:17:33;;;;;;;6.95;5.03;;;11.90;99.90;;;;;;4994763;28;20063;-54
2022/11/26 11:20:06;;;;;;;;;;;12.10;99.90;;;;;;4993915;28;20042;-52
2022/11/26 11:22:33;;;;;;;10.30;4.70;;;12.40;99.90;;;;;;4995581;28;19995;-52
2022/11/26 11:25:00;;;;;;;10.55;4.63;;;12.70;99.90;;;;;;4993097;28;20056;-53
2022/11/26 11:27:36;;;;;;;;;;;12.90;99.90;;;;;;4991856;28;20049;-53
2022/11/26 11:30:03;;;;;;;14.40;6.00;;;13.20;99.90;;;;;;4991524;28;19936;-51
2022/11/26 11:32:39;;;;;;;8.50;5.68;;;13.40;99.90;;;;;;5013436;28;20193;-52
2022/11/26 11:35:20;;;;;;;8.93;5.95;;;13.30;99.90;;;;;;4976029;28;20076;-53
2022/11/26 11:37:53;;;;;;;8.45;5.40;;;13.10;99.90;;;;;;4992131;28;20111;-53
2022/11/26 11:40:26;;;;;;;12.18;5.13;;;12.90;99.90;;;;;;4997304;28;20695;-51
2022/11/26 11:43:02;;;;;;;11.60;5.03;;;12.80;99.90;;;;;;4995069;28;20145;-53
2022/11/26 11:45:39;;;;;;;12.07;5.28;;;13.00;99.90;;;;;;4993682;28;20133;-53
2022/11/26 11:48:15;;;;;;;8.60;4.65;;;13.20;99.90;;;;;;4995652;28;20054;-55
2022/11/26 11:50:49;;;;;;;7.07;4.30;;;13.50;99.90;;;;;;4994812;28;20049;-52
2022/11/26 11:53:32;;;;;;;8.45;4.28;;;13.70;99.90;;;;;;4992782;28;20046;-52
2022/11/26 11:56:17;;;;;;;8.85;4.32;;;13.60;99.90;;;;;;4994472;28;20049;-53
2022/11/26 11:59:01;;;;;;;7.80;4.07;;;13.30;99.90;;;;;;4992564;28;20687;-54
2022/11/26 12:01:59;;;;;;;8.85;4.75;;;12.80;99.90;;;;;;4993328;28;20104;-53
2022/11/26 12:05:11;;;;;;;6.95;3.95;;;12.30;99.90;;;;;;4995041;28;20046;-54
2022/11/26 12:07:46;;;;;;;9.93;4.85;;;11.60;99.90;;;;;;4965833;28;20126;-52
2022/11/26 12:10:25;;;;;;;8.98;5.13;;;11.20;99.90;;;;;;4994631;28;20045;-53
2022/11/26 12:13:00;;;;;;;12.57;5.68;;;10.70;99.90;;;;;;4992789;28;20412;-53
2022/11/26 12:15:34;;;;;;;10.15;5.03;;;10.40;99.90;;;;;;4992106;28;20312;-53
2022/11/26 12:18:04;;;;;;;10.93;5.47;;;10.00;99.90;;;;;;4997110;28;20052;-50
2022/11/26 12:20:38;;;;;;;10.50;4.60;;;9.80;99.90;;;;;;4994749;28;20072;-53
2022/11/26 12:24:16;;;;;;;12.23;6.05;;;9.70;99.90;;;;;;4994162;28;20543;-52
2022/11/26 12:26:53;;;;;;;11.10;4.72;;;9.80;99.90;;;;;;4873778;29;20519;-53
2022/11/26 12:29:43;;;;;;;12.13;5.68;;;10.10;99.90;;;;;;4982949;28;20081;-53
2022/11/26 12:32:24;;;;;;;10.73;5.60;;;10.30;99.90;;;;;;4994711;28;20041;-55
2022/11/26 12:34:56;;;;;;;14.50;5.78;;;10.60;99.90;;;;;;4993939;28;20045;-53
2022/11/26 12:37:41;;;;;;;12.57;5.30;;;11.00;99.90;;;;;;4995195;28;20042;-53
2022/11/26 12:40:39;;;;;;;11.60;5.13;;;11.20;99.90;;;;;;4993301;28;20084;-55
2022/11/26 12:43:23;;;;;;;10.40;5.20;;;11.40;99.90;;;;;;4992686;28;20577;-54
2022/11/26 12:46:04;;;;;;;18.50;5.47;;;11.60;99.90;;;;;;4993185;28;20045;-54
2022/11/26 12:48:57;;;;;;;5.07;3.85;;;11.80;99.90;;;;;;4995754;28;20049;-53
2022/11/26 12:51:27;;;;;;;7.90;4.05;;;12.00;99.90;;;;;;4991377;28;20323;-53
2022/11/26 12:54:14;;;;;;;9.90;5.32;;;12.20;99.90;;;;;;4993986;28;20151;-55
2022/11/26 12:56:57;;;;;;;15.95;4.63;;;12.40;99.90;;;;;;4993085;28;20582;-52
2022/11/26 12:59:39;;;;;;;10.88;4.22;;;12.40;99.90;;;;;;4993714;28;20123;-54
2022/11/26 13:02:23;;;;;;;7.07;3.92;;;12.40;99.90;;;;;;4994495;28;20473;-53
2022/11/26 13:04:51;;;;;;;9.93;4.47;;;12.50;99.90;;;;;;4991520;28;20273;-53
2022/11/26 13:07:43;;;;;;;7.28;4.22;;;12.60;99.90;;;;;;4985528;28;20057;-56
2022/11/26 13:10:19;;;;;;;9.38;5.05;;;12.70;99.90;;;;;;4993856;28;20795;-54
2022/11/26 13:13:11;;;;;;;9.63;4.50;;;12.80;99.90;;;;;;4995949;28;20045;-54
2022/11/26 13:15:43;;;;;;;26.45;3.80;;;12.90;99.90;;;;;;4993115;28;20049;-53
2022/11/26 13:18:22;;;;;;;12.73;3.30;;;13.00;99.90;;;;;;4994375;28;20550;-53
2022/11/26 13:21:00;;;;;;;7.15;3.80;;;13.00;99.90;;;;;;4994374;28;20570;-53
2022/11/26 13:23:33;;;;;;;6.50;3.22;;;13.00;99.90;;;;;;4991176;28;20065;-52
2022/11/26 13:26:27;;;;;;;7.47;3.35;;;13.00;99.90;;;;;;4993483;28;20431;-52
2022/11/26 13:29:22;;;;;;;6.20;2.85;;;13.10;99.90;;;;;;4992141;28;20587;-54
2022/11/26 13:31:58;;;;;;;8.52;3.75;;;13.10;99.90;;;;;;4985040;28;20180;-51